sensor_id;sensor_type;location;lat;lon;timestamp;P1;durP1;ratioP1;P2;durP2;ratioP2
51943;SDS011;37969;53.132;6.370;2023-09-08T00:00:10;14.32;;;7.30;;
51943;SDS011;37969;53.132;6.370;2023-09-08T00:02:36;8.20;;;7.07;;
51943;SDS011;37969;53.132;6.370;2023-09-08T00:05:03;9.75;;;8.32;;
51943;SDS011;37969;53.132;6.370;2023-09-08T00:07:29;8.68;;;7.38;;
51943;SDS011;37969;53.132;6.370;2023-09-08T00:09:55;9.40;;;7.55;;
51943;SDS011;37969;53.132;6.370;2023-09-08T00:12:21;9.68;;;7.35;;
51943;SDS011;37969;53.132;6.370;2023-09-08T00:14:48;11.85;;;8.13;;
51943;SDS011;37969;53.132;6.370;2023-09-08T00:17:14;9.98;;;8.43;;
51943;SDS011;37969;53.132;6.370;2023-09-08T00:19:40;9.32;;;8.40;;
51943;SDS011;37969;53.132;6.370;2023-09-08T00:22:06;11.77;;;7.82;;
51943;SDS011;37969;53.132;6.370;2023-09-08T00:24:33;8.93;;;7.50;;
51943;SDS011;37969;53.132;6.370;2023-09-08T00:26:59;8.20;;;7.40;;
51943;SDS011;37969;53.132;6.370;2023-09-08T00:29:25;9.10;;;8.18;;
51943;SDS011;37969;53.132;6.370;2023-09-08T00:31:51;12.82;;;8.63;;
51943;SDS011;37969;53.132;6.370;2023-09-08T00:34:18;10.15;;;8.23;;
51943;SDS011;37969;53.132;6.370;2023-09-08T00:36:44;9.13;;;8.23;;
51943;SDS011;37969;53.132;6.370;2023-09-08T00:39:10;12.10;;;8.88;;
51943;SDS011;37969;53.132;6.370;2023-09-08T00:41:36;11.00;;;9.18;;
51943;SDS011;37969;53.132;6.370;2023-09-08T00:44:03;9.30;;;8.40;;
51943;SDS011;37969;53.132;6.370;2023-09-08T00:46:29;13.45;;;9.00;;
51943;SDS011;37969;53.132;6.370;2023-09-08T00:48:56;9.23;;;8.30;;
51943;SDS011;37969;53.132;6.370;2023-09-08T00:51:22;9.82;;;8.93;;
51943;SDS011;37969;53.132;6.370;2023-09-08T00:53:49;9.43;;;8.48;;
51943;SDS011;37969;53.132;6.370;2023-09-08T00:56:15;12.15;;;9.07;;
51943;SDS011;37969;53.132;6.370;2023-09-08T00:58:41;12.93;;;9.43;;
51943;SDS011;37969;53.132;6.370;2023-09-08T01:01:08;10.77;;;8.65;;
51943;SDS011;37969;53.132;6.370;2023-09-08T01:03:34;12.57;;;9.23;;
51943;SDS011;37969;53.132;6.370;2023-09-08T01:06:00;10.23;;;9.13;;
51943;SDS011;37969;53.132;6.370;2023-09-08T01:08:27;13.98;;;9.15;;
51943;SDS011;37969;53.132;6.370;2023-09-08T01:10:53;14.05;;;8.15;;
51943;SDS011;37969;53.132;6.370;2023-09-08T01:13:20;9.38;;;8.48;;
51943;SDS011;37969;53.132;6.370;2023-09-08T01:15:46;19.58;;;9.10;;
51943;SDS011;37969;53.132;6.370;2023-09-08T01:18:12;9.93;;;8.95;;
51943;SDS011;37969;53.132;6.370;2023-09-08T01:23:21;11.20;;;8.73;;
51943;SDS011;37969;53.132;6.370;2023-09-08T01:25:50;10.00;;;9.00;;
51943;SDS011;37969;53.132;6.370;2023-09-08T01:28:18;11.20;;;9.05;;
51943;SDS011;37969;53.132;6.370;2023-09-08T01:30:45;10.02;;;8.95;;
51943;SDS011;37969;53.132;6.370;2023-09-08T01:33:11;9.93;;;8.80;;
51943;SDS011;37969;53.132;6.370;2023-09-08T01:35:38;8.85;;;7.97;;
51943;SDS011;37969;53.132;6.370;2023-09-08T01:38:04;10.20;;;8.80;;
51943;SDS011;37969;53.132;6.370;2023-09-08T01:40:31;9.93;;;9.02;;
51943;SDS011;37969;53.132;6.370;2023-09-08T01:42:57;9.50;;;8.55;;
51943;SDS011;37969;53.132;6.370;2023-09-08T01:45:23;11.18;;;8.65;;
51943;SDS011;37969;53.132;6.370;2023-09-08T01:47:49;10.27;;;9.15;;
51943;SDS011;37969;53.132;6.370;2023-09-08T01:50:15;9.70;;;8.70;;
51943;SDS011;37969;53.132;6.370;2023-09-08T01:52:46;14.05;;;9.65;;
51943;SDS011;37969;53.132;6.370;2023-09-08T01:55:13;11.20;;;9.77;;
51943;SDS011;37969;53.132;6.370;2023-09-08T01:57:40;14.48;;;10.77;;
51943;SDS011;37969;53.132;6.370;2023-09-08T02:00:06;10.50;;;9.57;;
51943;SDS011;37969;53.132;6.370;2023-09-08T02:02:33;14.68;;;11.32;;
51943;SDS011;37969;53.132;6.370;2023-09-08T02:04:59;12.25;;;10.32;;
51943;SDS011;37969;53.132;6.370;2023-09-08T02:07:25;11.95;;;9.77;;
51943;SDS011;37969;53.132;6.370;2023-09-08T02:09:51;11.75;;;10.50;;
51943;SDS011;37969;53.132;6.370;2023-09-08T02:12:17;12.30;;;11.02;;
51943;SDS011;37969;53.132;6.370;2023-09-08T02:14:44;12.73;;;11.23;;
51943;SDS011;37969;53.132;6.370;2023-09-08T02:17:10;15.60;;;13.13;;
51943;SDS011;37969;53.132;6.370;2023-09-08T02:19:36;16.95;;;12.20;;
51943;SDS011;37969;53.132;6.370;2023-09-08T02:22:02;14.05;;;12.55;;
51943;SDS011;37969;53.132;6.370;2023-09-08T02:24:29;14.15;;;11.63;;
51943;SDS011;37969;53.132;6.370;2023-09-08T02:26:55;13.45;;;11.77;;
51943;SDS011;37969;53.132;6.370;2023-09-08T02:29:21;14.65;;;12.38;;
51943;SDS011;37969;53.132;6.370;2023-09-08T02:31:48;12.98;;;11.63;;
51943;SDS011;37969;53.132;6.370;2023-09-08T02:34:14;13.93;;;11.70;;
51943;SDS011;37969;53.132;6.370;2023-09-08T02:36:40;13.23;;;11.95;;
51943;SDS011;37969;53.132;6.370;2023-09-08T02:39:07;14.98;;;11.32;;
51943;SDS011;37969;53.132;6.370;2023-09-08T02:41:33;13.00;;;10.95;;
51943;SDS011;37969;53.132;6.370;2023-09-08T02:43:59;12.30;;;11.10;;
51943;SDS011;37969;53.132;6.370;2023-09-08T02:46:25;13.98;;;11.35;;
51943;SDS011;37969;53.132;6.370;2023-09-08T02:48:52;14.18;;;10.82;;
51943;SDS011;37969;53.132;6.370;2023-09-08T02:51:18;12.32;;;11.07;;
51943;SDS011;37969;53.132;6.370;2023-09-08T02:53:44;15.90;;;10.40;;
51943;SDS011;37969;53.132;6.370;2023-09-08T02:56:10;13.00;;;11.18;;
51943;SDS011;37969;53.132;6.370;2023-09-08T02:58:36;12.25;;;9.98;;
51943;SDS011;37969;53.132;6.370;2023-09-08T03:01:09;11.63;;;10.50;;
51943;SDS011;37969;53.132;6.370;2023-09-08T03:03:37;13.23;;;11.25;;
51943;SDS011;37969;53.132;6.370;2023-09-08T03:06:03;10.90;;;9.63;;
51943;SDS011;37969;53.132;6.370;2023-09-08T03:08:29;10.75;;;9.60;;
51943;SDS011;37969;53.132;6.370;2023-09-08T03:10:56;11.05;;;9.75;;
51943;SDS011;37969;53.132;6.370;2023-09-08T03:13:23;14.13;;;10.30;;
51943;SDS011;37969;53.132;6.370;2023-09-08T03:15:49;13.82;;;9.80;;
51943;SDS011;37969;53.132;6.370;2023-09-08T03:18:15;11.27;;;10.15;;
51943;SDS011;37969;53.132;6.370;2023-09-08T03:20:41;11.77;;;10.57;;
51943;SDS011;37969;53.132;6.370;2023-09-08T03:23:08;11.55;;;10.43;;
51943;SDS011;37969;53.132;6.370;2023-09-08T03:25:34;12.85;;;10.82;;
51943;SDS011;37969;53.132;6.370;2023-09-08T03:28:01;12.75;;;10.10;;
51943;SDS011;37969;53.132;6.370;2023-09-08T03:30:27;13.70;;;10.65;;
51943;SDS011;37969;53.132;6.370;2023-09-08T03:32:53;14.05;;;10.85;;
51943;SDS011;37969;53.132;6.370;2023-09-08T03:35:19;13.38;;;10.65;;
51943;SDS011;37969;53.132;6.370;2023-09-08T03:37:46;11.55;;;10.38;;
51943;SDS011;37969;53.132;6.370;2023-09-08T03:40:12;12.15;;;10.88;;
51943;SDS011;37969;53.132;6.370;2023-09-08T03:42:38;12.25;;;10.95;;
51943;SDS011;37969;53.132;6.370;2023-09-08T03:45:06;13.38;;;10.57;;
51943;SDS011;37969;53.132;6.370;2023-09-08T03:47:33;10.55;;;9.50;;
51943;SDS011;37969;53.132;6.370;2023-09-08T03:49:59;12.15;;;10.95;;
51943;SDS011;37969;53.132;6.370;2023-09-08T03:52:25;14.02;;;10.48;;
51943;SDS011;37969;53.132;6.370;2023-09-08T03:54:51;12.55;;;10.90;;
51943;SDS011;37969;53.132;6.370;2023-09-08T03:57:18;14.05;;;11.20;;
51943;SDS011;37969;53.132;6.370;2023-09-08T03:59:44;14.50;;;11.82;;
51943;SDS011;37969;53.132;6.370;2023-09-08T04:02:10;12.13;;;10.95;;
51943;SDS011;37969;53.132;6.370;2023-09-08T04:04:36;15.77;;;11.15;;
51943;SDS011;37969;53.132;6.370;2023-09-08T04:07:02;13.07;;;11.77;;
51943;SDS011;37969;53.132;6.370;2023-09-08T04:09:29;15.48;;;11.63;;
51943;SDS011;37969;53.132;6.370;2023-09-08T04:11:57;15.45;;;11.70;;
51943;SDS011;37969;53.132;6.370;2023-09-08T04:14:23;14.70;;;11.10;;
51943;SDS011;37969;53.132;6.370;2023-09-08T04:16:52;13.40;;;12.13;;
51943;SDS011;37969;53.132;6.370;2023-09-08T04:19:18;14.52;;;11.57;;
51943;SDS011;37969;53.132;6.370;2023-09-08T04:21:45;13.82;;;11.38;;
51943;SDS011;37969;53.132;6.370;2023-09-08T04:24:11;14.85;;;11.63;;
51943;SDS011;37969;53.132;6.370;2023-09-08T04:26:37;14.63;;;11.98;;
51943;SDS011;37969;53.132;6.370;2023-09-08T04:29:03;13.38;;;11.40;;
51943;SDS011;37969;53.132;6.370;2023-09-08T04:31:29;14.13;;;11.90;;
51943;SDS011;37969;53.132;6.370;2023-09-08T04:33:56;13.40;;;10.65;;
51943;SDS011;37969;53.132;6.370;2023-09-08T04:36:22;12.35;;;11.05;;
51943;SDS011;37969;53.132;6.370;2023-09-08T04:38:48;14.07;;;12.60;;
51943;SDS011;37969;53.132;6.370;2023-09-08T04:41:14;12.77;;;11.48;;
51943;SDS011;37969;53.132;6.370;2023-09-08T04:43:40;13.35;;;11.50;;
51943;SDS011;37969;53.132;6.370;2023-09-08T04:46:07;12.93;;;11.73;;
51943;SDS011;37969;53.132;6.370;2023-09-08T04:48:33;12.02;;;10.93;;
51943;SDS011;37969;53.132;6.370;2023-09-08T04:51:00;13.43;;;11.50;;
51943;SDS011;37969;53.132;6.370;2023-09-08T04:53:26;14.07;;;12.27;;
51943;SDS011;37969;53.132;6.370;2023-09-08T04:55:52;15.57;;;12.68;;
51943;SDS011;37969;53.132;6.370;2023-09-08T04:58:18;14.57;;;11.55;;
51943;SDS011;37969;53.132;6.370;2023-09-08T05:00:45;13.10;;;11.73;;
51943;SDS011;37969;53.132;6.370;2023-09-08T05:03:11;14.70;;;12.27;;
51943;SDS011;37969;53.132;6.370;2023-09-08T05:05:37;16.65;;;12.95;;
51943;SDS011;37969;53.132;6.370;2023-09-08T05:08:04;15.10;;;12.32;;
51943;SDS011;37969;53.132;6.370;2023-09-08T05:10:30;14.43;;;12.25;;
51943;SDS011;37969;53.132;6.370;2023-09-08T05:12:57;14.55;;;13.02;;
51943;SDS011;37969;53.132;6.370;2023-09-08T05:15:23;13.43;;;12.02;;
51943;SDS011;37969;53.132;6.370;2023-09-08T05:17:50;13.98;;;11.95;;
51943;SDS011;37969;53.132;6.370;2023-09-08T05:20:16;15.15;;;12.02;;
51943;SDS011;37969;53.132;6.370;2023-09-08T05:22:43;15.70;;;12.52;;
51943;SDS011;37969;53.132;6.370;2023-09-08T05:25:09;14.00;;;12.57;;
51943;SDS011;37969;53.132;6.370;2023-09-08T05:27:35;13.30;;;11.95;;
51943;SDS011;37969;53.132;6.370;2023-09-08T05:30:03;14.68;;;11.68;;
51943;SDS011;37969;53.132;6.370;2023-09-08T05:32:29;14.45;;;11.25;;
51943;SDS011;37969;53.132;6.370;2023-09-08T05:34:56;12.48;;;11.18;;
51943;SDS011;37969;53.132;6.370;2023-09-08T05:37:22;14.07;;;11.32;;
51943;SDS011;37969;53.132;6.370;2023-09-08T05:39:49;12.40;;;10.90;;
51943;SDS011;37969;53.132;6.370;2023-09-08T05:42:15;11.98;;;10.50;;
51943;SDS011;37969;53.132;6.370;2023-09-08T05:44:41;15.50;;;11.25;;
51943;SDS011;37969;53.132;6.370;2023-09-08T05:47:07;13.30;;;10.48;;
51943;SDS011;37969;53.132;6.370;2023-09-08T05:49:34;11.60;;;10.40;;
51943;SDS011;37969;53.132;6.370;2023-09-08T05:52:00;12.75;;;10.98;;
51943;SDS011;37969;53.132;6.370;2023-09-08T05:54:26;14.68;;;11.43;;
51943;SDS011;37969;53.132;6.370;2023-09-08T05:56:54;14.05;;;11.10;;
51943;SDS011;37969;53.132;6.370;2023-09-08T05:59:20;14.57;;;11.38;;
51943;SDS011;37969;53.132;6.370;2023-09-08T06:01:46;13.80;;;11.18;;
51943;SDS011;37969;53.132;6.370;2023-09-08T06:04:12;13.35;;;11.35;;
51943;SDS011;37969;53.132;6.370;2023-09-08T06:06:39;12.35;;;10.98;;
51943;SDS011;37969;53.132;6.370;2023-09-08T06:09:05;14.32;;;10.75;;
51943;SDS011;37969;53.132;6.370;2023-09-08T06:11:33;12.00;;;9.95;;
51943;SDS011;37969;53.132;6.370;2023-09-08T06:13:59;14.38;;;11.40;;
51943;SDS011;37969;53.132;6.370;2023-09-08T06:16:26;16.17;;;10.63;;
51943;SDS011;37969;53.132;6.370;2023-09-08T06:18:52;13.32;;;11.52;;
51943;SDS011;37969;53.132;6.370;2023-09-08T06:21:18;11.65;;;10.25;;
51943;SDS011;37969;53.132;6.370;2023-09-08T06:23:44;11.23;;;9.75;;
51943;SDS011;37969;53.132;6.370;2023-09-08T06:26:11;11.85;;;10.50;;
51943;SDS011;37969;53.132;6.370;2023-09-08T06:28:38;11.32;;;10.13;;
51943;SDS011;37969;53.132;6.370;2023-09-08T06:31:06;10.90;;;9.77;;
51943;SDS011;37969;53.132;6.370;2023-09-08T06:33:33;12.90;;;10.00;;
51943;SDS011;37969;53.132;6.370;2023-09-08T06:35:59;12.23;;;10.52;;
51943;SDS011;37969;53.132;6.370;2023-09-08T06:38:26;11.93;;;9.98;;
51943;SDS011;37969;53.132;6.370;2023-09-08T06:40:52;11.75;;;10.25;;
51943;SDS011;37969;53.132;6.370;2023-09-08T06:43:19;11.10;;;10.00;;
51943;SDS011;37969;53.132;6.370;2023-09-08T06:45:48;12.38;;;10.20;;
51943;SDS011;37969;53.132;6.370;2023-09-08T06:48:15;11.27;;;9.45;;
51943;SDS011;37969;53.132;6.370;2023-09-08T06:50:41;11.30;;;10.00;;
51943;SDS011;37969;53.132;6.370;2023-09-08T06:53:08;12.35;;;9.77;;
51943;SDS011;37969;53.132;6.370;2023-09-08T06:55:35;11.10;;;9.85;;
51943;SDS011;37969;53.132;6.370;2023-09-08T06:58:02;12.95;;;10.10;;
51943;SDS011;37969;53.132;6.370;2023-09-08T07:00:28;13.07;;;10.55;;
51943;SDS011;37969;53.132;6.370;2023-09-08T07:02:54;11.90;;;9.15;;
51943;SDS011;37969;53.132;6.370;2023-09-08T07:05:21;10.98;;;9.88;;
51943;SDS011;37969;53.132;6.370;2023-09-08T07:07:47;12.85;;;9.75;;
51943;SDS011;37969;53.132;6.370;2023-09-08T07:10:13;10.30;;;9.18;;
51943;SDS011;37969;53.132;6.370;2023-09-08T07:12:39;17.20;;;9.15;;
51943;SDS011;37969;53.132;6.370;2023-09-08T07:15:06;9.45;;;8.40;;
51943;SDS011;37969;53.132;6.370;2023-09-08T07:17:33;9.77;;;8.77;;
51943;SDS011;37969;53.132;6.370;2023-09-08T07:20:00;13.70;;;8.18;;
51943;SDS011;37969;53.132;6.370;2023-09-08T07:22:26;8.90;;;8.00;;
51943;SDS011;37969;53.132;6.370;2023-09-08T07:24:53;8.70;;;7.90;;
51943;SDS011;37969;53.132;6.370;2023-09-08T07:27:19;10.05;;;8.18;;
51943;SDS011;37969;53.132;6.370;2023-09-08T07:29:45;8.90;;;7.65;;
51943;SDS011;37969;53.132;6.370;2023-09-08T07:32:13;9.80;;;7.95;;
51943;SDS011;37969;53.132;6.370;2023-09-08T07:34:39;8.60;;;7.80;;
51943;SDS011;37969;53.132;6.370;2023-09-08T07:37:05;10.18;;;8.05;;
51943;SDS011;37969;53.132;6.370;2023-09-08T07:39:32;11.50;;;7.50;;
51943;SDS011;37969;53.132;6.370;2023-09-08T07:41:59;8.55;;;7.25;;
51943;SDS011;37969;53.132;6.370;2023-09-08T07:44:26;11.13;;;7.30;;
51943;SDS011;37969;53.132;6.370;2023-09-08T07:46:52;8.38;;;7.18;;
51943;SDS011;37969;53.132;6.370;2023-09-08T07:49:20;12.77;;;7.05;;
51943;SDS011;37969;53.132;6.370;2023-09-08T07:51:46;8.38;;;6.70;;
51943;SDS011;37969;53.132;6.370;2023-09-08T07:54:13;13.85;;;7.45;;
51943;SDS011;37969;53.132;6.370;2023-09-08T07:56:39;9.93;;;6.13;;
51943;SDS011;37969;53.132;6.370;2023-09-08T07:59:06;11.77;;;7.40;;
51943;SDS011;37969;53.132;6.370;2023-09-08T08:01:32;6.78;;;6.10;;
51943;SDS011;37969;53.132;6.370;2023-09-08T08:03:58;8.43;;;6.38;;
51943;SDS011;37969;53.132;6.370;2023-09-08T08:06:26;6.88;;;6.28;;
51943;SDS011;37969;53.132;6.370;2023-09-08T08:08:53;8.38;;;6.05;;
51943;SDS011;37969;53.132;6.370;2023-09-08T08:11:19;6.63;;;5.93;;
51943;SDS011;37969;53.132;6.370;2023-09-08T08:13:46;9.93;;;6.22;;
51943;SDS011;37969;53.132;6.370;2023-09-08T08:16:12;6.20;;;5.60;;
51943;SDS011;37969;53.132;6.370;2023-09-08T08:18:38;7.38;;;5.32;;
51943;SDS011;37969;53.132;6.370;2023-09-08T08:21:04;7.88;;;5.38;;
51943;SDS011;37969;53.132;6.370;2023-09-08T08:23:31;9.85;;;5.80;;
51943;SDS011;37969;53.132;6.370;2023-09-08T08:25:59;6.22;;;5.57;;
51943;SDS011;37969;53.132;6.370;2023-09-08T08:28:25;7.38;;;5.43;;
51943;SDS011;37969;53.132;6.370;2023-09-08T08:30:51;7.47;;;5.10;;
51943;SDS011;37969;53.132;6.370;2023-09-08T08:33:18;10.95;;;6.75;;
51943;SDS011;37969;53.132;6.370;2023-09-08T08:35:49;7.50;;;5.70;;
51943;SDS011;37969;53.132;6.370;2023-09-08T08:38:16;7.35;;;5.95;;
51943;SDS011;37969;53.132;6.370;2023-09-08T08:40:42;9.73;;;5.35;;
51943;SDS011;37969;53.132;6.370;2023-09-08T08:43:08;10.13;;;6.00;;
51943;SDS011;37969;53.132;6.370;2023-09-08T08:45:34;5.50;;;5.00;;
51943;SDS011;37969;53.132;6.370;2023-09-08T08:48:03;6.30;;;5.60;;
51943;SDS011;37969;53.132;6.370;2023-09-08T08:50:30;6.65;;;5.28;;
51943;SDS011;37969;53.132;6.370;2023-09-08T08:52:58;8.15;;;5.20;;
51943;SDS011;37969;53.132;6.370;2023-09-08T08:55:25;6.55;;;4.85;;
51943;SDS011;37969;53.132;6.370;2023-09-08T08:57:52;8.43;;;5.47;;
51943;SDS011;37969;53.132;6.370;2023-09-08T09:00:19;9.15;;;4.93;;
51943;SDS011;37969;53.132;6.370;2023-09-08T09:02:45;6.20;;;5.47;;
51943;SDS011;37969;53.132;6.370;2023-09-08T09:05:14;5.90;;;5.18;;
51943;SDS011;37969;53.132;6.370;2023-09-08T09:07:42;5.97;;;5.18;;
51943;SDS011;37969;53.132;6.370;2023-09-08T09:10:08;9.77;;;5.50;;
51943;SDS011;37969;53.132;6.370;2023-09-08T09:12:36;9.55;;;5.15;;
51943;SDS011;37969;53.132;6.370;2023-09-08T09:15:03;9.30;;;5.00;;
51943;SDS011;37969;53.132;6.370;2023-09-08T09:17:32;10.63;;;5.40;;
51943;SDS011;37969;53.132;6.370;2023-09-08T09:22:25;8.65;;;5.50;;
51943;SDS011;37969;53.132;6.370;2023-09-08T09:25:02;9.18;;;5.38;;
51943;SDS011;37969;53.132;6.370;2023-09-08T09:27:32;6.80;;;4.70;;
51943;SDS011;37969;53.132;6.370;2023-09-08T09:30:03;6.88;;;5.53;;
51943;SDS011;37969;53.132;6.370;2023-09-08T09:32:29;5.68;;;5.15;;
51943;SDS011;37969;53.132;6.370;2023-09-08T09:34:56;11.77;;;5.60;;
51943;SDS011;37969;53.132;6.370;2023-09-08T09:37:26;11.77;;;6.13;;
51943;SDS011;37969;53.132;6.370;2023-09-08T09:39:53;8.73;;;5.45;;
51943;SDS011;37969;53.132;6.370;2023-09-08T09:42:20;6.05;;;5.20;;
51943;SDS011;37969;53.132;6.370;2023-09-08T09:44:47;7.60;;;4.57;;
51943;SDS011;37969;53.132;6.370;2023-09-08T09:47:14;8.90;;;5.00;;
51943;SDS011;37969;53.132;6.370;2023-09-08T09:49:43;8.20;;;5.35;;
51943;SDS011;37969;53.132;6.370;2023-09-08T09:52:11;7.70;;;4.80;;
51943;SDS011;37969;53.132;6.370;2023-09-08T09:54:40;7.57;;;5.03;;
51943;SDS011;37969;53.132;6.370;2023-09-08T09:57:06;7.55;;;5.30;;
51943;SDS011;37969;53.132;6.370;2023-09-08T09:59:33;6.85;;;4.82;;
51943;SDS011;37969;53.132;6.370;2023-09-08T10:01:59;6.63;;;4.90;;
51943;SDS011;37969;53.132;6.370;2023-09-08T10:04:26;11.85;;;4.68;;
51943;SDS011;37969;53.132;6.370;2023-09-08T10:06:53;5.45;;;4.22;;
51943;SDS011;37969;53.132;6.370;2023-09-08T10:09:23;7.97;;;5.97;;
51943;SDS011;37969;53.132;6.370;2023-09-08T10:11:49;6.20;;;4.85;;
51943;SDS011;37969;53.132;6.370;2023-09-08T10:14:16;7.70;;;4.88;;
51943;SDS011;37969;53.132;6.370;2023-09-08T10:16:44;5.55;;;4.25;;
51943;SDS011;37969;53.132;6.370;2023-09-08T10:19:11;4.57;;;4.18;;
51943;SDS011;37969;53.132;6.370;2023-09-08T10:21:39;7.18;;;5.00;;
51943;SDS011;37969;53.132;6.370;2023-09-08T10:24:12;6.85;;;4.90;;
51943;SDS011;37969;53.132;6.370;2023-09-08T10:26:41;7.53;;;5.00;;
51943;SDS011;37969;53.132;6.370;2023-09-08T10:29:09;6.40;;;4.40;;
51943;SDS011;37969;53.132;6.370;2023-09-08T10:31:36;5.72;;;4.55;;
51943;SDS011;37969;53.132;6.370;2023-09-08T10:34:02;5.95;;;4.72;;
51943;SDS011;37969;53.132;6.370;2023-09-08T10:36:29;8.50;;;4.90;;
51943;SDS011;37969;53.132;6.370;2023-09-08T10:39:18;10.38;;;5.00;;
51943;SDS011;37969;53.132;6.370;2023-09-08T10:41:42;9.43;;;5.13;;
51943;SDS011;37969;53.132;6.370;2023-09-08T10:44:10;8.30;;;4.80;;
51943;SDS011;37969;53.132;6.370;2023-09-08T10:46:40;5.03;;;4.53;;
51943;SDS011;37969;53.132;6.370;2023-09-08T10:49:06;7.15;;;4.85;;
51943;SDS011;37969;53.132;6.370;2023-09-08T10:51:33;8.85;;;4.82;;
51943;SDS011;37969;53.132;6.370;2023-09-08T10:54:00;15.13;;;5.00;;
51943;SDS011;37969;53.132;6.370;2023-09-08T10:56:29;5.50;;;4.97;;
51943;SDS011;37969;53.132;6.370;2023-09-08T10:59:14;7.80;;;4.93;;
51943;SDS011;37969;53.132;6.370;2023-09-08T11:01:41;7.65;;;4.57;;
51943;SDS011;37969;53.132;6.370;2023-09-08T11:04:08;5.32;;;4.80;;
51943;SDS011;37969;53.132;6.370;2023-09-08T11:06:35;7.10;;;4.63;;
51943;SDS011;37969;53.132;6.370;2023-09-08T11:09:06;8.82;;;4.90;;
51943;SDS011;37969;53.132;6.370;2023-09-08T11:11:33;4.65;;;4.25;;
51943;SDS011;37969;53.132;6.370;2023-09-08T11:13:59;5.88;;;4.20;;
51943;SDS011;37969;53.132;6.370;2023-09-08T11:16:25;6.88;;;4.95;;
51943;SDS011;37969;53.132;6.370;2023-09-08T11:18:56;6.15;;;4.63;;
51943;SDS011;37969;53.132;6.370;2023-09-08T11:21:23;4.68;;;3.85;;
51943;SDS011;37969;53.132;6.370;2023-09-08T11:23:50;9.55;;;4.35;;
51943;SDS011;37969;53.132;6.370;2023-09-08T11:26:16;7.10;;;4.35;;
51943;SDS011;37969;53.132;6.370;2023-09-08T11:28:43;4.70;;;4.13;;
51943;SDS011;37969;53.132;6.370;2023-09-08T11:31:12;6.10;;;4.20;;
51943;SDS011;37969;53.132;6.370;2023-09-08T11:33:38;5.90;;;4.25;;
51943;SDS011;37969;53.132;6.370;2023-09-08T11:36:11;4.38;;;3.97;;
51943;SDS011;37969;53.132;6.370;2023-09-08T11:38:39;5.93;;;4.78;;
51943;SDS011;37969;53.132;6.370;2023-09-08T11:41:06;6.90;;;4.53;;
51943;SDS011;37969;53.132;6.370;2023-09-08T11:43:32;5.97;;;3.95;;
51943;SDS011;37969;53.132;6.370;2023-09-08T11:45:59;7.20;;;4.05;;
51943;SDS011;37969;53.132;6.370;2023-09-08T11:48:26;6.03;;;4.10;;
51943;SDS011;37969;53.132;6.370;2023-09-08T11:50:53;5.18;;;4.40;;
51943;SDS011;37969;53.132;6.370;2023-09-08T11:53:20;6.30;;;4.93;;
51943;SDS011;37969;53.132;6.370;2023-09-08T11:55:46;5.40;;;4.28;;
51943;SDS011;37969;53.132;6.370;2023-09-08T11:58:12;5.22;;;4.00;;
51943;SDS011;37969;53.132;6.370;2023-09-08T12:00:39;8.55;;;4.35;;
51943;SDS011;37969;53.132;6.370;2023-09-08T12:03:11;7.05;;;3.88;;
51943;SDS011;37969;53.132;6.370;2023-09-08T12:05:38;5.03;;;3.83;;
51943;SDS011;37969;53.132;6.370;2023-09-08T12:08:06;5.00;;;4.18;;
51943;SDS011;37969;53.132;6.370;2023-09-08T12:10:39;4.65;;;4.07;;
51943;SDS011;37969;53.132;6.370;2023-09-08T12:13:05;5.70;;;3.78;;
51943;SDS011;37969;53.132;6.370;2023-09-08T12:15:33;7.45;;;3.70;;
51943;SDS011;37969;53.132;6.370;2023-09-08T12:18:01;3.92;;;3.63;;
51943;SDS011;37969;53.132;6.370;2023-09-08T12:20:28;6.97;;;3.72;;
51943;SDS011;37969;53.132;6.370;2023-09-08T12:22:57;5.80;;;3.80;;
51943;SDS011;37969;53.132;6.370;2023-09-08T12:25:23;4.13;;;3.72;;
51943;SDS011;37969;53.132;6.370;2023-09-08T12:27:50;5.93;;;3.70;;
51943;SDS011;37969;53.132;6.370;2023-09-08T12:30:19;4.97;;;3.35;;
51943;SDS011;37969;53.132;6.370;2023-09-08T12:32:46;4.63;;;3.43;;
51943;SDS011;37969;53.132;6.370;2023-09-08T12:35:18;3.92;;;3.63;;
51943;SDS011;37969;53.132;6.370;2023-09-08T12:37:44;7.18;;;3.80;;
51943;SDS011;37969;53.132;6.370;2023-09-08T12:40:11;7.30;;;4.05;;
51943;SDS011;37969;53.132;6.370;2023-09-08T12:42:38;5.00;;;3.63;;
51943;SDS011;37969;53.132;6.370;2023-09-08T12:45:05;6.00;;;4.40;;
51943;SDS011;37969;53.132;6.370;2023-09-08T12:47:33;4.15;;;3.75;;
51943;SDS011;37969;53.132;6.370;2023-09-08T12:50:01;4.68;;;3.90;;
51943;SDS011;37969;53.132;6.370;2023-09-08T12:52:28;5.30;;;3.20;;
51943;SDS011;37969;53.132;6.370;2023-09-08T12:54:56;4.17;;;3.70;;
51943;SDS011;37969;53.132;6.370;2023-09-08T12:57:23;5.32;;;3.67;;
51943;SDS011;37969;53.132;6.370;2023-09-08T12:59:49;7.07;;;3.60;;
51943;SDS011;37969;53.132;6.370;2023-09-08T13:02:17;4.15;;;3.50;;
51943;SDS011;37969;53.132;6.370;2023-09-08T13:04:43;4.88;;;3.58;;
51943;SDS011;37969;53.132;6.370;2023-09-08T13:07:15;5.28;;;3.78;;
51943;SDS011;37969;53.132;6.370;2023-09-08T13:09:41;6.22;;;3.72;;
51943;SDS011;37969;53.132;6.370;2023-09-08T13:12:07;6.18;;;3.53;;
51943;SDS011;37969;53.132;6.370;2023-09-08T13:14:34;3.67;;;3.38;;
51943;SDS011;37969;53.132;6.370;2023-09-08T13:17:00;4.32;;;3.85;;
51943;SDS011;37969;53.132;6.370;2023-09-08T13:19:28;5.22;;;3.40;;
51943;SDS011;37969;53.132;6.370;2023-09-08T13:21:54;4.28;;;3.72;;
51943;SDS011;37969;53.132;6.370;2023-09-08T13:24:20;5.22;;;3.50;;
51943;SDS011;37969;53.132;6.370;2023-09-08T13:26:47;11.73;;;3.97;;
51943;SDS011;37969;53.132;6.370;2023-09-08T13:29:14;7.03;;;4.15;;
51943;SDS011;37969;53.132;6.370;2023-09-08T13:31:40;7.25;;;3.50;;
51943;SDS011;37969;53.132;6.370;2023-09-08T13:34:06;7.60;;;3.88;;
51943;SDS011;37969;53.132;6.370;2023-09-08T13:36:33;6.55;;;3.47;;
51943;SDS011;37969;53.132;6.370;2023-09-08T13:38:59;5.18;;;3.40;;
51943;SDS011;37969;53.132;6.370;2023-09-08T13:41:29;7.45;;;3.78;;
51943;SDS011;37969;53.132;6.370;2023-09-08T13:44:09;5.43;;;3.95;;
51943;SDS011;37969;53.132;6.370;2023-09-08T13:46:35;6.28;;;3.95;;
51943;SDS011;37969;53.132;6.370;2023-09-08T13:49:01;5.95;;;3.20;;
51943;SDS011;37969;53.132;6.370;2023-09-08T13:51:28;7.95;;;3.40;;
51943;SDS011;37969;53.132;6.370;2023-09-08T13:53:54;5.32;;;3.55;;
51943;SDS011;37969;53.132;6.370;2023-09-08T13:56:20;5.13;;;3.40;;
51943;SDS011;37969;53.132;6.370;2023-09-08T13:58:46;4.63;;;3.60;;
51943;SDS011;37969;53.132;6.370;2023-09-08T14:01:12;4.03;;;3.63;;
51943;SDS011;37969;53.132;6.370;2023-09-08T14:03:39;5.18;;;3.50;;
51943;SDS011;37969;53.132;6.370;2023-09-08T14:06:05;4.07;;;3.45;;
51943;SDS011;37969;53.132;6.370;2023-09-08T14:08:31;5.55;;;3.65;;
51943;SDS011;37969;53.132;6.370;2023-09-08T14:10:57;3.85;;;3.40;;
51943;SDS011;37969;53.132;6.370;2023-09-08T14:13:23;3.90;;;3.42;;
51943;SDS011;37969;53.132;6.370;2023-09-08T14:15:50;4.32;;;3.42;;
51943;SDS011;37969;53.132;6.370;2023-09-08T14:18:16;6.82;;;3.17;;
51943;SDS011;37969;53.132;6.370;2023-09-08T14:20:42;5.25;;;3.78;;
51943;SDS011;37969;53.132;6.370;2023-09-08T14:23:09;7.20;;;3.75;;
51943;SDS011;37969;53.132;6.370;2023-09-08T14:25:35;5.97;;;3.47;;
51943;SDS011;37969;53.132;6.370;2023-09-08T14:28:01;4.25;;;3.13;;
51943;SDS011;37969;53.132;6.370;2023-09-08T14:30:29;8.35;;;3.42;;
51943;SDS011;37969;53.132;6.370;2023-09-08T14:32:55;4.90;;;3.50;;
51943;SDS011;37969;53.132;6.370;2023-09-08T14:35:21;4.13;;;3.72;;
51943;SDS011;37969;53.132;6.370;2023-09-08T14:37:48;4.07;;;3.67;;
51943;SDS011;37969;53.132;6.370;2023-09-08T14:40:14;4.00;;;3.53;;